Terminal Aerodrome Forecast
Issued by NWS

Home | Current Version | Previous Version | Text Only | Print | Product List | Glossary On
Versions: 1 2 3 4 5 6 7 8 9 10 11 12 13 14
946
FTUS46 KSGX 022337
TAFCRQ
TAF
KCRQ 022337Z 0300/0324 36010KT P6SM SKC WS010/02025KT
     FM030100 VRB06KT P6SM SKC WS010/04025KT=

USA.gov is the U.S. government's official web portal to all federal, state and local government web resources and services.